createdAt,value
2018-06-24T00:00:51.337Z,11.31
2018-06-24T00:03:26.528Z,11.27
2018-06-24T00:06:02.342Z,11.25
2018-06-24T00:08:39.305Z,11.29
2018-06-24T00:11:11.902Z,11.27
2018-06-24T00:13:47.775Z,11.24
2018-06-24T00:16:20.335Z,11.18
2018-06-24T00:18:53.198Z,11.18
2018-06-24T00:21:27.267Z,11.24
2018-06-24T00:23:59.998Z,11.37
2018-06-24T00:26:33.140Z,11.33
2018-06-24T00:29:06.083Z,11.29
2018-06-24T00:31:38.884Z,11.20
2018-06-24T00:34:11.418Z,11.12
2018-06-24T00:36:44.689Z,11.02
2018-06-24T00:39:18.509Z,10.92
2018-06-24T00:41:50.949Z,10.93
2018-06-24T00:44:24.132Z,10.94
2018-06-24T00:46:57.405Z,10.98
2018-06-24T00:49:30.466Z,11.02
2018-06-24T00:52:03.431Z,11.04
2018-06-24T00:54:38.410Z,11.14
2018-06-24T00:57:10.993Z,11.33
2018-06-24T01:00:05.947Z,11.34
2018-06-24T01:02:39.177Z,11.33
2018-06-24T01:05:12.650Z,11.35
2018-06-24T01:07:48.985Z,11.47
2018-06-24T01:10:21.971Z,11.57
2018-06-24T01:12:54.515Z,11.57
2018-06-24T01:15:28.990Z,11.57
2018-06-24T01:18:01.709Z,11.46
2018-06-24T01:20:34.622Z,11.43
2018-06-24T01:23:08.938Z,11.44
2018-06-24T01:25:43.484Z,11.46
2018-06-24T01:28:20.230Z,11.58
2018-06-24T01:30:53.876Z,11.76
2018-06-24T01:33:26.755Z,11.90
2018-06-24T01:36:01.104Z,12.03
2018-06-24T01:38:33.909Z,12.07
2018-06-24T01:41:08.397Z,12.11
2018-06-24T01:43:42.215Z,12.13
2018-06-24T01:46:14.822Z,12.10
2018-06-24T01:48:47.400Z,12.05
2018-06-24T01:51:21.306Z,11.98
2018-06-24T01:53:54.529Z,11.92
2018-06-24T01:56:28.729Z,11.88
2018-06-24T01:59:01.586Z,11.86
2018-06-24T02:01:35.161Z,11.85
2018-06-24T02:04:08.081Z,11.95
2018-06-24T02:06:41.317Z,11.91
2018-06-24T02:09:13.817Z,11.89
2018-06-24T02:11:46.366Z,11.85
2018-06-24T02:14:21.166Z,11.83
2018-06-24T02:16:56.816Z,11.82
2018-06-24T02:19:31.088Z,11.83
2018-06-24T02:22:05.013Z,11.87
2018-06-24T02:24:37.876Z,11.89
2018-06-24T02:27:10.596Z,11.89
2018-06-24T02:29:43.671Z,11.97
2018-06-24T02:32:17.042Z,11.89
2018-06-24T02:34:49.664Z,11.72
2018-06-24T02:37:22.456Z,11.57
2018-06-24T02:39:55.870Z,11.46
2018-06-24T02:42:28.579Z,11.39
2018-06-24T02:45:05.392Z,11.46
2018-06-24T02:47:38.434Z,11.40
2018-06-24T02:50:12.230Z,11.37
2018-06-24T02:52:45.125Z,11.33
2018-06-24T02:55:18.773Z,11.27
2018-06-24T02:57:56.158Z,11.23
2018-06-24T03:00:34.493Z,11.25
2018-06-24T03:03:07.371Z,11.44
2018-06-24T03:05:43.011Z,11.40
2018-06-24T03:08:15.809Z,11.38
2018-06-24T03:10:53.557Z,11.34
2018-06-24T03:13:27.670Z,11.47
2018-06-24T03:16:00.873Z,11.45
2018-06-24T03:18:35.685Z,11.53
2018-06-24T03:21:09.827Z,11.44
2018-06-24T03:23:42.424Z,11.33
2018-06-24T03:26:15.022Z,11.23
2018-06-24T03:28:47.730Z,11.23
2018-06-24T03:31:20.330Z,11.12
2018-06-24T03:33:52.949Z,11.02
2018-06-24T03:36:25.896Z,10.96
2018-06-24T03:38:58.780Z,10.89
2018-06-24T03:41:32.056Z,10.88
2018-06-24T03:44:05.331Z,10.89
2018-06-24T03:46:39.297Z,10.89
2018-06-24T03:49:11.928Z,10.94
2018-06-24T03:51:44.856Z,10.97
2018-06-24T03:54:17.464Z,10.94
2018-06-24T03:56:50.247Z,10.93
2018-06-24T03:59:23.294Z,10.94
2018-06-24T04:01:55.828Z,10.96
2018-06-24T04:04:30.364Z,11.08
2018-06-24T04:07:03.458Z,11.09
2018-06-24T04:09:36.753Z,11.11
2018-06-24T04:12:09.669Z,11.15
2018-06-24T04:14:42.584Z,11.19
2018-06-24T04:17:15.118Z,11.38
2018-06-24T04:19:47.520Z,11.52
2018-06-24T04:22:20.349Z,11.62
2018-06-24T04:24:54.007Z,11.85
2018-06-24T04:27:26.499Z,12.04
2018-06-24T04:30:00.587Z,12.12
2018-06-24T04:32:36.710Z,12.26
2018-06-24T04:35:09.345Z,12.43
2018-06-24T04:37:42.333Z,12.51
2018-06-24T04:40:14.932Z,12.60
2018-06-24T04:42:48.764Z,12.67
2018-06-24T04:45:22.657Z,12.73
2018-06-24T04:47:55.297Z,12.79
2018-06-24T04:50:27.964Z,12.84
2018-06-24T04:53:01.897Z,12.82
2018-06-24T04:55:34.843Z,12.72
2018-06-24T04:58:07.723Z,12.61
2018-06-24T05:00:41.201Z,12.49
2018-06-24T05:03:15.122Z,12.44
2018-06-24T05:05:48.831Z,12.52
2018-06-24T05:08:23.878Z,12.69
2018-06-24T05:10:56.257Z,12.79
2018-06-24T05:13:29.668Z,12.93
2018-06-24T05:16:02.448Z,13.19
2018-06-24T05:18:35.620Z,13.33
2018-06-24T05:21:08.256Z,13.45
2018-06-24T05:23:42.015Z,13.56
2018-06-24T05:26:16.236Z,13.66
2018-06-24T05:28:48.790Z,13.79
2018-06-24T05:31:24.387Z,13.95
2018-06-24T05:33:57.677Z,14.14
2018-06-24T05:36:30.212Z,14.30
2018-06-24T05:39:04.912Z,14.52
2018-06-24T05:41:37.795Z,14.70
2018-06-24T05:44:10.488Z,14.88
2018-06-24T05:46:44.778Z,14.99
2018-06-24T05:49:17.456Z,15.13
2018-06-24T05:51:50.347Z,15.22
2018-06-24T05:54:25.360Z,15.30
2018-06-24T05:56:57.864Z,15.43
2018-06-24T05:59:30.364Z,15.63
2018-06-24T06:02:03.228Z,15.90
2018-06-24T06:04:36.348Z,16.21
2018-06-24T06:07:09.073Z,16.50
2018-06-24T06:09:42.797Z,16.81
2018-06-24T06:12:15.836Z,17.01
2018-06-24T06:14:48.634Z,17.12
2018-06-24T06:17:23.319Z,17.08
2018-06-24T06:19:55.961Z,17.02
2018-06-24T06:22:28.811Z,16.97
2018-06-24T06:25:04.053Z,16.82
2018-06-24T06:27:36.902Z,16.72
2018-06-24T06:30:13.613Z,16.67
2018-06-24T06:32:46.653Z,16.66
2018-06-24T06:35:21.703Z,16.74
2018-06-24T06:37:54.905Z,16.89
2018-06-24T06:40:27.442Z,17.07
2018-06-24T06:43:07.593Z,17.26
2018-06-24T06:45:41.946Z,17.39
2018-06-24T06:48:15.812Z,17.61
2018-06-24T06:50:48.584Z,17.55
2018-06-24T06:53:21.307Z,17.62
2018-06-24T06:55:54.238Z,17.73
2018-06-24T06:58:29.476Z,18.01
2018-06-24T07:01:02.912Z,18.17
2018-06-24T07:03:42.746Z,18.17
2018-06-24T07:06:17.097Z,18.23
2018-06-24T07:08:49.508Z,18.23
2018-06-24T07:11:24.196Z,18.24
2018-06-24T07:13:56.765Z,18.22
2018-06-24T07:16:29.214Z,18.06
2018-06-24T07:19:04.413Z,17.67
2018-06-24T07:21:38.819Z,17.44
2018-06-24T07:24:15.323Z,17.36
2018-06-24T07:26:48.460Z,17.14
2018-06-24T07:29:20.989Z,17.17
2018-06-24T07:31:53.408Z,17.25
2018-06-24T07:34:32.599Z,17.36
2018-06-24T07:37:11.380Z,17.35
2018-06-24T07:39:49.905Z,17.28
2018-06-24T07:42:24.360Z,17.23
2018-06-24T07:44:59.417Z,17.31
2018-06-24T07:47:34.892Z,17.38
2018-06-24T07:50:10.470Z,17.25
2018-06-24T07:52:45.326Z,17.26
2018-06-24T07:55:18.493Z,17.23
2018-06-24T07:57:51.956Z,17.16
2018-06-24T08:00:35.171Z,16.99
2018-06-24T08:03:10.588Z,16.74
2018-06-24T08:05:43.892Z,16.65
2018-06-24T08:08:19.669Z,16.76
2018-06-24T08:10:52.108Z,17.05
2018-06-24T08:13:35.743Z,17.36
2018-06-24T08:16:09.971Z,17.67
2018-06-24T08:18:50.126Z,17.61
2018-06-24T08:21:23.701Z,17.87
2018-06-24T08:23:56.941Z,18.19
2018-06-24T08:26:32.728Z,18.43
2018-06-24T08:29:05.331Z,18.45
2018-06-24T08:31:43.687Z,18.53
2018-06-24T08:34:16.257Z,18.52
2018-06-24T08:36:50.039Z,18.63
2018-06-24T08:39:23.084Z,18.59
2018-06-24T08:41:56.485Z,18.71
2018-06-24T08:44:48.148Z,18.82
2018-06-24T08:47:24.603Z,18.82
2018-06-24T08:49:57.856Z,18.91
2018-06-24T08:52:34.737Z,19.10
2018-06-24T08:55:09.963Z,19.18
2018-06-24T08:57:43.621Z,19.26
2018-06-24T09:00:18.611Z,19.62
2018-06-24T09:02:52.708Z,19.65
2018-06-24T09:05:32.480Z,19.72
2018-06-24T09:08:06.390Z,20.13
2018-06-24T09:10:40.843Z,20.38
2018-06-24T09:13:17.522Z,20.77
2018-06-24T09:15:53.280Z,21.13
2018-06-24T09:18:28.877Z,21.02
2018-06-24T09:21:05.508Z,20.51
2018-06-24T09:23:41.873Z,20.11
2018-06-24T09:26:18.501Z,19.81
2018-06-24T09:28:53.613Z,19.62
2018-06-24T09:31:28.709Z,19.31
2018-06-24T09:34:05.668Z,19.22
2018-06-24T09:36:45.086Z,19.37
2018-06-24T09:39:18.970Z,19.62
2018-06-24T09:41:53.190Z,19.78
2018-06-24T09:44:26.316Z,19.42
2018-06-24T09:47:00.612Z,19.33
2018-06-24T09:49:36.710Z,19.46
2018-06-24T09:52:13.013Z,19.61
2018-06-24T09:54:49.071Z,19.87
2018-06-24T09:57:22.820Z,20.01
2018-06-24T10:00:21.216Z,19.75
2018-06-24T10:02:57.005Z,19.80
2018-06-24T10:05:29.669Z,20.45
2018-06-24T10:08:02.553Z,20.68
2018-06-24T10:10:39.976Z,20.54
2018-06-24T10:13:12.950Z,20.52
2018-06-24T10:15:52.490Z,20.95
2018-06-24T10:18:25.141Z,21.58
2018-06-24T10:21:02.063Z,21.69
2018-06-24T10:23:38.855Z,21.01
2018-06-24T10:26:17.970Z,20.41
2018-06-24T10:28:57.956Z,20.35
2018-06-24T10:31:31.288Z,20.53
2018-06-24T10:34:10.624Z,20.20
2018-06-24T10:36:45.951Z,21.01
2018-06-24T10:39:22.696Z,21.38
2018-06-24T10:41:57.844Z,21.41
2018-06-24T10:44:31.386Z,21.49
2018-06-24T10:47:13.180Z,21.39
2018-06-24T10:50:06.071Z,21.50
2018-06-24T10:52:39.833Z,21.93
2018-06-24T10:55:26.417Z,22.27
2018-06-24T10:58:00.664Z,22.41
2018-06-24T11:00:40.458Z,22.55
2018-06-24T11:03:20.141Z,22.68
2018-06-24T11:06:06.476Z,22.65
2018-06-24T11:08:41.049Z,22.50
2018-06-24T11:11:17.180Z,22.45
2018-06-24T11:14:01.473Z,22.62
2018-06-24T11:16:36.594Z,23.16
2018-06-24T11:19:12.118Z,23.01
2018-06-24T11:21:53.301Z,22.77
2018-06-24T11:24:27.433Z,22.54
2018-06-24T11:27:05.609Z,22.64
2018-06-24T11:29:40.812Z,22.80
2018-06-24T11:32:18.835Z,22.69
2018-06-24T11:34:59.166Z,22.60
2018-06-24T11:37:33.801Z,22.34
2018-06-24T11:40:08.542Z,22.22
2018-06-24T11:42:42.930Z,21.96
2018-06-24T11:45:16.061Z,21.64
2018-06-24T11:47:55.333Z,21.40
2018-06-24T11:50:37.618Z,21.60
2018-06-24T11:53:10.930Z,21.40
2018-06-24T11:55:50.876Z,21.20
2018-06-24T11:58:26.678Z,21.56
2018-06-24T12:01:05.470Z,21.40
2018-06-24T12:03:40.457Z,21.51
2018-06-24T12:06:20.045Z,21.15
2018-06-24T12:08:54.246Z,21.51
2018-06-24T12:11:33.037Z,21.47
2018-06-24T12:14:11.202Z,21.75
2018-06-24T12:16:47.142Z,22.09
2018-06-24T12:19:27.592Z,22.10
2018-06-24T12:22:11.610Z,22.26
2018-06-24T12:24:46.743Z,21.88
2018-06-24T12:27:28.385Z,21.70
2018-06-24T12:30:10.183Z,21.84
2018-06-24T12:32:46.486Z,21.84
2018-06-24T12:35:26.197Z,22.05
2018-06-24T12:38:04.189Z,21.90
2018-06-24T12:40:40.176Z,21.97
2018-06-24T12:43:24.304Z,22.09
2018-06-24T12:46:01.910Z,22.03
2018-06-24T12:48:41.744Z,21.72
2018-06-24T12:51:19.008Z,21.55
2018-06-24T12:54:02.031Z,21.53
2018-06-24T12:56:41.701Z,21.73
2018-06-24T12:59:24.842Z,21.62
2018-06-24T13:02:17.992Z,21.27
2018-06-24T13:04:58.205Z,21.26
2018-06-24T13:07:37.801Z,21.16
2018-06-24T13:10:15.101Z,21.10
2018-06-24T13:12:50.366Z,21.00
2018-06-24T13:15:27.896Z,20.96
2018-06-24T13:18:07.944Z,21.03
2018-06-24T13:20:43.002Z,20.95
2018-06-24T13:23:29.812Z,21.08
2018-06-24T13:26:12.643Z,21.03
2018-06-24T13:28:46.945Z,21.18
2018-06-24T13:31:31.030Z,21.31
2018-06-24T13:34:13.621Z,21.42
2018-06-24T13:36:48.875Z,21.22
2018-06-24T13:39:30.714Z,21.05
2018-06-24T13:42:14.977Z,20.65
2018-06-24T13:44:49.730Z,20.59
2018-06-24T13:47:28.234Z,20.62
2018-06-24T13:50:11.997Z,20.62
2018-06-24T13:52:54.353Z,20.92
2018-06-24T13:55:29.510Z,20.47
2018-06-24T13:58:05.023Z,20.70
2018-06-24T14:00:46.496Z,20.60
2018-06-24T14:03:26.458Z,20.88
2018-06-24T14:06:02.297Z,20.83
2018-06-24T14:08:36.095Z,20.61
2018-06-24T14:11:21.568Z,20.63
2018-06-24T14:13:57.900Z,20.68
2018-06-24T14:16:41.130Z,20.46
2018-06-24T14:19:22.148Z,20.33
2018-06-24T14:21:57.312Z,20.10
2018-06-24T14:24:33.603Z,19.95
2018-06-24T14:27:12.289Z,19.77
2018-06-24T14:29:53.658Z,19.61
2018-06-24T14:32:27.690Z,19.53
2018-06-24T14:35:02.838Z,19.44
2018-06-24T14:37:42.364Z,19.41
2018-06-24T14:40:21.424Z,19.44
2018-06-24T14:42:57.773Z,19.30
2018-06-24T14:45:35.796Z,19.27
2018-06-24T14:48:19.161Z,19.19
2018-06-24T14:50:58.839Z,19.15
2018-06-24T14:53:34.843Z,19.05
2018-06-24T14:56:18.207Z,18.96
2018-06-24T14:58:56.568Z,18.92
2018-06-24T15:01:35.868Z,18.89
2018-06-24T15:04:19.177Z,18.88
2018-06-24T15:06:54.498Z,18.89
2018-06-24T15:09:29.005Z,18.91
2018-06-24T15:12:03.188Z,18.94
2018-06-24T15:14:40.741Z,19.08
2018-06-24T15:17:17.594Z,19.11
2018-06-24T15:19:53.526Z,19.06
2018-06-24T15:22:28.704Z,19.06
2018-06-24T15:25:08.713Z,19.11
2018-06-24T15:27:42.860Z,18.99
2018-06-24T15:30:18.824Z,18.93
2018-06-24T15:33:00.878Z,18.90
2018-06-24T15:35:36.869Z,18.90
2018-06-24T15:38:20.028Z,18.89
2018-06-24T15:40:58.429Z,18.89
2018-06-24T15:43:35.075Z,18.82
2018-06-24T15:46:18.402Z,18.78
2018-06-24T15:48:53.946Z,18.82
2018-06-24T15:51:29.766Z,18.97
2018-06-24T15:54:06.168Z,18.91
2018-06-24T15:56:41.665Z,18.94
2018-06-24T15:59:22.296Z,18.81
2018-06-24T16:01:58.047Z,18.61
2018-06-24T16:04:35.790Z,18.53
2018-06-24T16:07:28.590Z,18.38
2018-06-24T16:10:04.330Z,18.17
2018-06-24T16:12:45.316Z,18.17
2018-06-24T16:15:25.343Z,17.98
2018-06-24T16:18:03.764Z,17.86
2018-06-24T16:20:42.475Z,17.76
2018-06-24T16:23:18.851Z,17.61
2018-06-24T16:25:58.153Z,17.49
2018-06-24T16:28:36.317Z,17.41
2018-06-24T16:31:15.369Z,17.35
2018-06-24T16:33:51.404Z,17.28
2018-06-24T16:36:27.708Z,17.30
2018-06-24T16:39:12.969Z,17.28
2018-06-24T16:41:46.816Z,17.35
2018-06-24T16:44:22.637Z,17.46
2018-06-24T16:47:04.383Z,17.54
2018-06-24T16:49:42.985Z,17.55
2018-06-24T16:52:18.787Z,17.50
2018-06-24T16:54:52.495Z,17.50
2018-06-24T16:57:30.002Z,17.36
2018-06-24T17:00:06.750Z,17.32
2018-06-24T17:02:41.305Z,17.27
2018-06-24T17:05:20.262Z,17.20
2018-06-24T17:07:55.723Z,17.14
2018-06-24T17:10:29.349Z,17.10
2018-06-24T17:13:03.288Z,17.09
2018-06-24T17:15:37.925Z,17.07
2018-06-24T17:18:13.094Z,17.06
2018-06-24T17:20:49.897Z,17.07
2018-06-24T17:23:25.387Z,17.03
2018-06-24T17:26:00.616Z,17.00
2018-06-24T17:28:35.018Z,17.02
2018-06-24T17:31:22.471Z,17.02
2018-06-24T17:33:58.686Z,17.06
2018-06-24T17:36:34.030Z,17.09
2018-06-24T17:39:17.047Z,17.08
2018-06-24T17:41:53.148Z,17.08
2018-06-24T17:44:31.725Z,17.03
2018-06-24T17:47:11.720Z,16.89
2018-06-24T17:49:46.868Z,16.73
2018-06-24T17:52:20.726Z,16.60
2018-06-24T17:54:56.800Z,16.50
2018-06-24T17:57:32.603Z,16.48
2018-06-24T18:00:08.390Z,16.49
2018-06-24T18:02:48.408Z,16.54
2018-06-24T18:05:27.842Z,16.57
2018-06-24T18:08:04.197Z,16.67
2018-06-24T18:10:37.289Z,16.72
2018-06-24T18:13:11.590Z,16.70
2018-06-24T18:15:46.104Z,16.67
2018-06-24T18:18:21.960Z,16.61
2018-06-24T18:20:56.736Z,16.59
2018-06-24T18:23:30.022Z,16.47
2018-06-24T18:26:05.452Z,16.27
2018-06-24T18:28:38.897Z,16.07
2018-06-24T18:31:14.627Z,15.97
2018-06-24T18:33:48.813Z,15.93
2018-06-24T18:36:28.486Z,15.81
2018-06-24T18:39:10.321Z,15.62
2018-06-24T18:41:43.764Z,15.49
2018-06-24T18:44:23.176Z,15.45
2018-06-24T18:47:02.931Z,15.23
2018-06-24T18:49:37.945Z,15.08
2018-06-24T18:52:12.356Z,15.00
2018-06-24T18:54:50.499Z,14.95
2018-06-24T18:57:35.750Z,14.92
2018-06-24T19:00:27.538Z,14.92
2018-06-24T19:03:07.404Z,14.92
2018-06-24T19:05:43.910Z,14.91
2018-06-24T19:08:26.840Z,14.99
2018-06-24T19:11:03.875Z,14.95
2018-06-24T19:13:39.663Z,14.97
2018-06-24T19:16:18.628Z,14.99
2018-06-24T19:18:55.834Z,15.02
2018-06-24T19:21:33.085Z,15.06
2018-06-24T19:24:06.053Z,15.12
2018-06-24T19:26:42.769Z,15.09
2018-06-24T19:29:18.597Z,15.06
2018-06-24T19:31:55.304Z,15.04
2018-06-24T19:34:35.134Z,15.03
2018-06-24T19:37:16.501Z,15.01
2018-06-24T19:39:54.907Z,15.03
2018-06-24T19:42:35.641Z,15.04
2018-06-24T19:45:15.148Z,15.12
2018-06-24T19:47:53.717Z,15.07
2018-06-24T19:50:28.766Z,15.08
2018-06-24T19:53:03.997Z,15.10
2018-06-24T19:55:42.979Z,15.08
2018-06-24T19:58:18.373Z,15.09
2018-06-24T20:01:01.532Z,15.10
2018-06-24T20:03:35.682Z,15.05
2018-06-24T20:06:16.576Z,15.02
2018-06-24T20:08:52.481Z,14.94
2018-06-24T20:11:29.162Z,14.93
2018-06-24T20:14:02.876Z,14.81
2018-06-24T20:16:36.608Z,14.80
2018-06-24T20:19:11.445Z,14.76
2018-06-24T20:21:44.412Z,14.70
2018-06-24T20:24:23.733Z,14.61
2018-06-24T20:27:05.029Z,14.54
2018-06-24T20:29:43.917Z,14.50
2018-06-24T20:32:22.029Z,14.55
2018-06-24T20:34:58.106Z,14.58
2018-06-24T20:37:34.190Z,14.63
2018-06-24T20:40:08.669Z,14.63
2018-06-24T20:42:43.380Z,14.62
2018-06-24T20:45:19.707Z,14.53
2018-06-24T20:48:20.444Z,14.55
2018-06-24T20:50:58.615Z,14.52
2018-06-24T20:53:35.272Z,14.55
2018-06-24T20:56:09.461Z,14.60
2018-06-24T20:58:44.281Z,14.60
2018-06-24T21:01:27.243Z,14.61
2018-06-24T21:04:02.322Z,14.57
2018-06-24T21:06:38.564Z,14.60
2018-06-24T21:09:18.262Z,14.58
2018-06-24T21:11:51.676Z,14.57
2018-06-24T21:14:35.357Z,14.56
2018-06-24T21:17:08.562Z,14.58
2018-06-24T21:19:51.339Z,14.67
2018-06-24T21:22:31.020Z,14.68
2018-06-24T21:25:11.481Z,14.69
2018-06-24T21:27:59.570Z,14.56
2018-06-24T21:30:36.785Z,14.47
2018-06-24T21:33:12.623Z,14.53
2018-06-24T21:35:55.149Z,14.51
2018-06-24T21:38:30.743Z,14.55
2018-06-24T21:41:05.253Z,14.56
2018-06-24T21:43:43.572Z,14.56
2018-06-24T21:46:41.689Z,14.60
2018-06-24T21:49:28.400Z,14.59
2018-06-24T21:52:07.044Z,14.50
2018-06-24T21:54:41.522Z,14.42
2018-06-24T21:57:17.162Z,14.35
2018-06-24T21:59:51.711Z,14.42
2018-06-24T22:02:28.214Z,14.46
2018-06-24T22:05:03.000Z,14.52
2018-06-24T22:07:37.697Z,14.54
2018-06-24T22:10:10.930Z,14.53
2018-06-24T22:12:50.658Z,14.54
2018-06-24T22:15:25.726Z,14.61
2018-06-24T22:17:58.432Z,14.66
2018-06-24T22:20:33.257Z,14.63
2018-06-24T22:23:19.391Z,14.55
2018-06-24T22:25:54.864Z,14.49
2018-06-24T22:28:29.640Z,14.48
2018-06-24T22:31:05.171Z,14.40
2018-06-24T22:33:37.768Z,14.29
2018-06-24T22:36:15.180Z,14.24
2018-06-24T22:38:48.843Z,14.19
2018-06-24T22:41:21.990Z,14.13
2018-06-24T22:43:55.772Z,14.11
2018-06-24T22:46:30.279Z,14.08
2018-06-24T22:49:02.887Z,14.05
2018-06-24T22:51:36.052Z,14.02
2018-06-24T22:54:09.179Z,14.11
2018-06-24T22:56:42.608Z,14.04
2018-06-24T22:59:37.797Z,14.13
2018-06-24T23:02:11.104Z,14.21
2018-06-24T23:04:43.742Z,14.23
2018-06-24T23:07:17.245Z,14.16
2018-06-24T23:09:50.660Z,14.14
2018-06-24T23:12:23.468Z,14.13
2018-06-24T23:14:57.145Z,14.15
2018-06-24T23:17:34.078Z,14.15
2018-06-24T23:20:09.131Z,14.13
2018-06-24T23:22:44.026Z,14.13
2018-06-24T23:25:19.324Z,14.20
2018-06-24T23:27:53.121Z,14.27
2018-06-24T23:30:34.939Z,14.19
2018-06-24T23:33:10.656Z,14.15
2018-06-24T23:35:45.953Z,14.11
2018-06-24T23:38:18.716Z,14.11
2018-06-24T23:40:51.256Z,14.11
2018-06-24T23:43:27.052Z,14.09
2018-06-24T23:45:59.737Z,14.08
2018-06-24T23:48:35.385Z,14.07
2018-06-24T23:51:07.948Z,14.04
2018-06-24T23:53:40.575Z,14.14
2018-06-24T23:56:14.526Z,14.11
2018-06-24T23:58:46.943Z,14.12
